createdAt,value
2023-02-17T00:00:33.267Z,7.95
2023-02-17T00:03:18.430Z,8.15
2023-02-17T00:06:08.574Z,9.23
2023-02-17T00:08:54.982Z,7.57
2023-02-17T00:11:40.198Z,7.50
2023-02-17T00:14:25.763Z,7.68
2023-02-17T00:17:10.854Z,7.18
2023-02-17T00:19:55.959Z,6.75
2023-02-17T00:22:41.294Z,7.93
2023-02-17T00:25:26.267Z,6.45
2023-02-17T00:28:11.551Z,6.80
2023-02-17T00:30:56.797Z,7.35
2023-02-17T00:33:41.908Z,6.88
2023-02-17T00:36:27.201Z,6.78
2023-02-17T00:39:17.161Z,7.43
2023-02-17T00:42:02.304Z,6.43
2023-02-17T00:44:47.610Z,6.57
2023-02-17T00:47:32.856Z,6.65
2023-02-17T00:50:17.801Z,6.82
2023-02-17T00:53:02.983Z,7.15
2023-02-17T00:55:48.582Z,7.03
2023-02-17T00:58:42.806Z,7.69
2023-02-17T01:01:28.249Z,7.53
2023-02-17T01:04:13.424Z,7.57
2023-02-17T01:06:58.955Z,7.47
2023-02-17T01:09:44.160Z,7.95
2023-02-17T01:12:29.354Z,7.88
2023-02-17T01:15:14.511Z,9.30
2023-02-17T01:17:59.682Z,8.80
2023-02-17T01:20:44.958Z,9.02
2023-02-17T01:23:29.986Z,9.07
2023-02-17T01:26:16.530Z,9.18
2023-02-17T01:29:02.644Z,8.55
2023-02-17T01:31:47.943Z,8.85
2023-02-17T01:34:33.009Z,8.75
2023-02-17T01:37:18.115Z,9.18
2023-02-17T01:40:03.940Z,9.63
2023-02-17T01:42:49.170Z,9.65
2023-02-17T01:45:38.062Z,9.63
2023-02-17T01:48:34.589Z,9.63
2023-02-17T01:51:25.347Z,10.10
2023-02-17T01:54:20.303Z,10.07
2023-02-17T01:57:05.882Z,9.95
2023-02-17T01:59:51.811Z,9.50
2023-02-17T02:02:37.943Z,10.52
2023-02-17T02:05:23.509Z,10.65
2023-02-17T02:08:11.394Z,9.98
2023-02-17T02:10:56.560Z,10.25
2023-02-17T02:13:41.791Z,10.10
2023-02-17T02:16:45.411Z,9.90
2023-02-17T02:19:42.184Z,10.70
2023-02-17T02:22:43.575Z,9.60
2023-02-17T02:25:50.168Z,10.52
2023-02-17T02:28:38.045Z,10.45
2023-02-17T02:31:51.717Z,11.10
2023-02-17T02:34:52.367Z,12.13
2023-02-17T02:37:42.449Z,11.35
2023-02-17T02:40:33.325Z,12.13
2023-02-17T02:43:19.052Z,12.05
2023-02-17T02:46:04.397Z,12.32
2023-02-17T02:48:51.304Z,11.75
2023-02-17T02:51:39.379Z,11.10
2023-02-17T02:54:52.181Z,12.20
2023-02-17T02:57:52.677Z,11.90
2023-02-17T03:00:54.188Z,11.40
2023-02-17T03:04:09.066Z,12.20
2023-02-17T03:07:01.654Z,11.65
2023-02-17T03:09:55.744Z,11.40
2023-02-17T03:12:40.795Z,11.98
2023-02-17T03:15:33.681Z,11.98
2023-02-17T03:18:19.145Z,11.55
2023-02-17T03:21:15.518Z,11.93
2023-02-17T03:24:00.542Z,10.93
2023-02-17T03:26:45.956Z,11.45
2023-02-17T03:29:31.157Z,11.00
2023-02-17T03:32:16.575Z,10.40
2023-02-17T03:35:02.298Z,10.00
2023-02-17T03:37:47.310Z,10.15
2023-02-17T03:40:32.890Z,9.43
2023-02-17T03:43:18.209Z,10.07
2023-02-17T03:46:03.675Z,9.52
2023-02-17T03:48:48.686Z,9.10
2023-02-17T03:51:33.686Z,8.30
2023-02-17T03:54:18.870Z,7.35
2023-02-17T03:57:04.151Z,7.80
2023-02-17T03:59:49.414Z,8.02
2023-02-17T04:02:34.711Z,7.32
2023-02-17T04:05:19.958Z,7.88
2023-02-17T04:08:04.919Z,6.70
2023-02-17T04:10:54.847Z,6.78
2023-02-17T04:13:40.644Z,6.75
2023-02-17T04:16:25.637Z,7.10
2023-02-17T04:19:10.760Z,6.85
2023-02-17T04:21:55.628Z,6.53
2023-02-17T04:24:40.734Z,6.40
2023-02-17T04:27:26.093Z,6.15
2023-02-17T04:30:12.513Z,6.00
2023-02-17T04:32:57.980Z,6.07
2023-02-17T04:35:43.036Z,6.47
2023-02-17T04:38:30.612Z,6.30
2023-02-17T04:41:15.661Z,5.50
2023-02-17T04:44:00.826Z,5.50
2023-02-17T04:46:46.058Z,5.43
2023-02-17T04:49:31.328Z,5.22
2023-02-17T04:52:16.471Z,5.38
2023-02-17T04:55:01.949Z,5.55
2023-02-17T04:57:47.079Z,5.25
2023-02-17T05:00:32.617Z,5.25
2023-02-17T05:03:18.746Z,5.33
2023-02-17T05:06:04.592Z,5.03
2023-02-17T05:08:50.785Z,5.43
2023-02-17T05:11:35.632Z,4.45
2023-02-17T05:14:20.923Z,5.72
2023-02-17T05:17:06.058Z,4.53
2023-02-17T05:19:51.501Z,5.10
2023-02-17T05:22:36.847Z,4.93
2023-02-17T05:25:22.083Z,4.47
2023-02-17T05:28:07.294Z,4.70
2023-02-17T05:30:52.596Z,4.90
2023-02-17T05:33:38.000Z,5.13
2023-02-17T05:36:23.100Z,4.60
2023-02-17T05:39:09.045Z,4.53
2023-02-17T05:41:56.596Z,4.25
2023-02-17T05:44:41.741Z,3.83
2023-02-17T05:47:27.777Z,4.13
2023-02-17T05:50:13.082Z,4.13
2023-02-17T05:52:58.403Z,3.70
2023-02-17T05:55:43.655Z,3.67
2023-02-17T05:58:28.636Z,3.33
2023-02-17T06:01:14.392Z,3.28
2023-02-17T06:03:59.344Z,2.95
2023-02-17T06:06:44.475Z,3.65
2023-02-17T06:09:29.682Z,3.40
2023-02-17T06:12:14.948Z,2.80
2023-02-17T06:15:00.291Z,2.80
2023-02-17T06:17:45.406Z,2.55
2023-02-17T06:20:30.805Z,2.70
2023-02-17T06:23:16.447Z,2.67
2023-02-17T06:26:01.701Z,2.22
2023-02-17T06:28:47.090Z,2.60
2023-02-17T06:31:32.300Z,2.80
2023-02-17T06:34:17.596Z,2.80
2023-02-17T06:37:02.815Z,2.78
2023-02-17T06:39:47.998Z,3.58
2023-02-17T06:42:32.809Z,3.00
2023-02-17T06:45:17.930Z,2.88
2023-02-17T06:48:03.200Z,2.80
2023-02-17T06:50:51.597Z,2.65
2023-02-17T06:53:36.670Z,2.58
2023-02-17T06:56:22.178Z,2.40
2023-02-17T06:59:07.264Z,2.20
2023-02-17T07:01:52.640Z,2.10
2023-02-17T07:04:38.760Z,1.90
2023-02-17T07:07:23.827Z,1.52
2023-02-17T07:10:09.382Z,1.45
2023-02-17T07:12:54.398Z,1.10
2023-02-17T07:15:39.615Z,1.10
2023-02-17T07:18:24.613Z,1.10
2023-02-17T07:21:10.892Z,1.00
2023-02-17T07:23:56.006Z,0.90
2023-02-17T07:26:41.597Z,0.85
2023-02-17T07:29:27.601Z,0.77
2023-02-17T07:32:12.697Z,0.98
2023-02-17T07:34:57.698Z,0.70
2023-02-17T07:37:43.025Z,0.52
2023-02-17T07:40:28.431Z,0.65
2023-02-17T07:43:13.753Z,0.52
2023-02-17T07:45:59.494Z,0.68
2023-02-17T07:48:44.888Z,0.63
2023-02-17T07:51:30.123Z,0.60
2023-02-17T07:54:15.862Z,0.60
2023-02-17T07:57:01.069Z,0.60
2023-02-17T07:59:47.018Z,0.50
2023-02-17T08:02:32.387Z,0.40
2023-02-17T08:05:17.306Z,0.30
2023-02-17T08:08:21.033Z,0.50
2023-02-17T08:11:25.024Z,0.60
2023-02-17T08:14:12.817Z,0.55
2023-02-17T08:16:58.737Z,0.70
2023-02-17T08:19:48.403Z,0.90
2023-02-17T08:25:19.367Z,1.17
2023-02-17T08:28:06.037Z,0.90
2023-02-17T08:30:51.429Z,0.82
2023-02-17T08:33:36.676Z,0.70
2023-02-17T08:36:25.908Z,0.40
2023-02-17T08:39:14.159Z,0.40
2023-02-17T08:41:59.855Z,0.30
2023-02-17T08:44:45.170Z,0.43
2023-02-17T08:47:30.339Z,0.85
2023-02-17T08:50:16.516Z,0.60
2023-02-17T08:53:01.970Z,0.50
2023-02-17T08:55:49.424Z,0.55
2023-02-17T08:58:35.359Z,0.70
2023-02-17T09:01:21.703Z,0.60
2023-02-17T09:04:08.564Z,0.60
2023-02-17T09:06:56.720Z,0.50
2023-02-17T09:09:42.653Z,0.60
2023-02-17T09:12:29.068Z,0.40
2023-02-17T09:15:13.978Z,0.60
2023-02-17T09:17:59.113Z,0.20
2023-02-17T09:20:44.572Z,0.52
2023-02-17T09:23:29.788Z,0.47
2023-02-17T09:26:16.751Z,0.40
2023-02-17T09:29:03.913Z,0.93
2023-02-17T09:31:49.476Z,0.40
2023-02-17T09:34:39.644Z,0.40
2023-02-17T09:37:24.860Z,0.55
2023-02-17T09:40:20.389Z,0.20
2023-02-17T09:43:12.221Z,0.30
2023-02-17T09:46:05.763Z,0.40
2023-02-17T09:48:54.566Z,0.50
2023-02-17T09:51:47.791Z,0.53
2023-02-17T09:54:52.347Z,0.80
2023-02-17T09:57:51.508Z,0.50
2023-02-17T10:00:45.533Z,0.63
2023-02-17T10:03:46.632Z,0.63
2023-02-17T10:06:59.405Z,0.40
2023-02-17T10:09:53.865Z,0.45
2023-02-17T10:12:44.598Z,0.38
2023-02-17T10:15:36.175Z,0.50
2023-02-17T10:18:39.635Z,0.60
2023-02-17T10:21:48.564Z,0.60
2023-02-17T10:24:33.611Z,0.40
2023-02-17T10:27:22.916Z,0.50
2023-02-17T10:30:20.729Z,0.30
2023-02-17T10:33:29.313Z,0.52
2023-02-17T10:36:36.775Z,0.60
2023-02-17T10:39:46.568Z,0.65
2023-02-17T10:42:36.364Z,0.77
2023-02-17T10:45:36.762Z,0.47
2023-02-17T10:48:35.798Z,0.88
2023-02-17T10:51:26.601Z,0.80
2023-02-17T10:54:40.384Z,0.80
2023-02-17T10:57:32.187Z,0.75
2023-02-17T11:00:18.572Z,1.00
2023-02-17T11:03:03.832Z,1.10
2023-02-17T11:06:01.786Z,0.98
2023-02-17T11:08:51.801Z,1.00
2023-02-17T11:11:37.184Z,0.98
2023-02-17T11:14:28.703Z,1.05
2023-02-17T11:17:21.028Z,1.50
2023-02-17T11:20:27.191Z,1.67
2023-02-17T11:23:15.348Z,1.50
2023-02-17T11:26:11.049Z,1.40
2023-02-17T11:29:07.800Z,1.40
2023-02-17T11:31:58.208Z,1.42
2023-02-17T11:34:44.343Z,1.50
2023-02-17T11:37:32.298Z,1.67
2023-02-17T11:40:28.922Z,1.35
2023-02-17T11:43:19.152Z,1.55
2023-02-17T11:46:31.972Z,1.60
2023-02-17T11:49:39.940Z,1.45
2023-02-17T11:52:45.324Z,1.35
2023-02-17T11:56:11.898Z,1.38
2023-02-17T11:59:22.114Z,1.33
2023-02-17T12:02:15.799Z,1.83
2023-02-17T12:05:33.208Z,1.50
2023-02-17T12:08:51.025Z,1.48
2023-02-17T12:11:55.190Z,1.33
2023-02-17T12:14:49.474Z,1.70
2023-02-17T12:17:59.726Z,1.83
2023-02-17T12:21:20.229Z,1.63
2023-02-17T12:24:32.879Z,1.80
2023-02-17T12:27:40.037Z,2.05
2023-02-17T12:30:43.841Z,2.05
2023-02-17T12:33:29.148Z,2.05
2023-02-17T12:36:16.854Z,2.17
2023-02-17T12:39:22.706Z,2.25
2023-02-17T12:42:18.164Z,2.05
2023-02-17T12:45:13.834Z,2.35
2023-02-17T12:48:34.061Z,2.65
2023-02-17T12:51:26.201Z,1.85
2023-02-17T12:54:19.701Z,2.15
2023-02-17T12:57:10.858Z,1.80
2023-02-17T12:59:58.619Z,2.42
2023-02-17T13:02:44.126Z,2.30
2023-02-17T13:05:35.868Z,2.20
2023-02-17T13:08:27.656Z,2.40
2023-02-17T13:11:25.637Z,2.10
2023-02-17T13:14:38.262Z,2.08
2023-02-17T13:17:28.060Z,1.92
2023-02-17T13:23:10.532Z,1.80
2023-02-17T13:26:23.686Z,2.15
2023-02-17T13:29:23.712Z,2.05
2023-02-17T13:32:12.402Z,1.70
2023-02-17T13:35:08.635Z,1.77
2023-02-17T13:37:54.910Z,1.70
2023-02-17T13:40:43.381Z,1.50
2023-02-17T13:43:31.107Z,1.95
2023-02-17T13:46:24.349Z,1.42
2023-02-17T13:49:23.275Z,2.20
2023-02-17T13:52:17.988Z,2.13
2023-02-17T13:55:06.123Z,2.00
2023-02-17T13:57:57.048Z,2.17
2023-02-17T14:00:43.868Z,2.30
2023-02-17T14:03:31.010Z,2.45
2023-02-17T14:06:28.280Z,2.45
2023-02-17T14:09:26.141Z,2.65
2023-02-17T14:12:23.437Z,1.90
2023-02-17T14:15:20.715Z,2.55
2023-02-17T14:18:13.695Z,2.30
2023-02-17T14:21:03.580Z,2.10
2023-02-17T14:23:52.256Z,2.42
2023-02-17T14:26:43.278Z,2.25
2023-02-17T14:29:43.488Z,2.30
2023-02-17T14:32:33.118Z,2.60
2023-02-17T14:35:23.799Z,2.72
2023-02-17T14:38:41.307Z,2.67
2023-02-17T14:41:27.065Z,2.20
2023-02-17T14:44:12.380Z,2.35
2023-02-17T14:46:57.652Z,2.42
2023-02-17T14:49:42.798Z,2.40
2023-02-17T14:52:28.159Z,2.30
2023-02-17T14:55:26.701Z,2.53
2023-02-17T14:58:19.878Z,2.33
2023-02-17T15:01:05.830Z,2.08
2023-02-17T15:03:52.276Z,2.25
2023-02-17T15:06:47.414Z,1.80
2023-02-17T15:09:32.585Z,2.40
2023-02-17T15:12:20.272Z,2.88
2023-02-17T15:15:05.700Z,2.92
2023-02-17T15:17:50.582Z,2.70
2023-02-17T15:20:36.656Z,3.03
2023-02-17T15:23:25.602Z,3.20
2023-02-17T15:26:12.225Z,3.40
2023-02-17T15:28:58.840Z,2.90
2023-02-17T15:31:44.435Z,3.67
2023-02-17T15:34:32.304Z,3.75
2023-02-17T15:37:17.572Z,3.42
2023-02-17T15:40:03.030Z,3.72
2023-02-17T15:42:54.406Z,3.58
2023-02-17T15:45:39.609Z,3.90
2023-02-17T15:48:27.314Z,3.47
2023-02-17T15:51:14.971Z,3.15
2023-02-17T15:53:59.949Z,3.04
2023-02-17T15:56:52.689Z,3.83
2023-02-17T15:59:38.168Z,3.47
2023-02-17T16:02:25.328Z,3.35
2023-02-17T16:05:13.680Z,4.03
2023-02-17T16:07:59.037Z,3.55
2023-02-17T16:10:46.668Z,3.45
2023-02-17T16:13:32.551Z,3.35
2023-02-17T16:16:21.819Z,3.33
2023-02-17T16:19:06.811Z,2.97
2023-02-17T16:21:52.019Z,3.47
2023-02-17T16:24:37.085Z,3.40
2023-02-17T16:27:24.064Z,3.40
2023-02-17T16:30:23.494Z,3.90
2023-02-17T16:35:55.122Z,4.13
2023-02-17T16:38:40.859Z,3.67
2023-02-17T16:41:25.997Z,4.22
2023-02-17T16:44:19.238Z,3.92
2023-02-17T16:47:06.583Z,3.78
2023-02-17T16:49:52.077Z,4.07
2023-02-17T16:52:37.059Z,4.40
2023-02-17T16:55:24.813Z,4.80
2023-02-17T16:58:18.981Z,3.83
2023-02-17T17:01:04.353Z,3.75
2023-02-17T17:03:49.629Z,3.63
2023-02-17T17:06:36.558Z,4.35
2023-02-17T17:09:23.999Z,4.57
2023-02-17T17:12:11.009Z,4.68
2023-02-17T17:14:56.330Z,4.45
2023-02-17T17:17:46.886Z,4.50
2023-02-17T17:23:26.920Z,4.10
2023-02-17T17:26:23.135Z,4.00
2023-02-17T17:29:11.428Z,4.38
2023-02-17T17:31:56.656Z,4.80
2023-02-17T17:34:42.296Z,4.20
2023-02-17T17:37:27.351Z,5.20
2023-02-17T17:40:21.846Z,5.40
2023-02-17T17:43:06.750Z,5.30
2023-02-17T17:45:52.531Z,5.55
2023-02-17T17:48:37.539Z,5.47
2023-02-17T17:51:23.451Z,5.60
2023-02-17T17:54:09.333Z,7.85
2023-02-17T17:56:54.370Z,8.70
2023-02-17T17:59:39.798Z,8.15
2023-02-17T18:02:24.949Z,8.00
2023-02-17T18:05:09.891Z,7.10
2023-02-17T18:07:56.337Z,7.40
2023-02-17T18:10:42.607Z,5.97
2023-02-17T18:13:28.144Z,7.00
2023-02-17T18:16:14.369Z,7.45
2023-02-17T18:19:01.069Z,6.50
2023-02-17T18:21:47.759Z,7.65
2023-02-17T18:24:32.672Z,7.35
2023-02-17T18:27:18.066Z,6.57
2023-02-17T18:30:03.732Z,7.10
2023-02-17T18:32:49.239Z,7.72
2023-02-17T18:35:36.167Z,7.65
2023-02-17T18:38:21.584Z,6.53
2023-02-17T18:41:07.162Z,7.88
2023-02-17T18:43:52.335Z,6.70
2023-02-17T18:46:39.880Z,7.60
2023-02-17T18:49:25.409Z,7.72
2023-02-17T18:52:10.600Z,8.20
2023-02-17T18:54:55.878Z,7.72
2023-02-17T18:57:41.742Z,8.38
2023-02-17T19:00:27.260Z,8.38
2023-02-17T19:03:12.530Z,7.55
2023-02-17T19:05:57.709Z,8.48
2023-02-17T19:08:44.281Z,9.18
2023-02-17T19:11:30.086Z,8.93
2023-02-17T19:14:15.267Z,9.20
2023-02-17T19:17:00.619Z,8.43
2023-02-17T19:19:45.536Z,10.10
2023-02-17T19:22:31.001Z,9.27
2023-02-17T19:25:16.092Z,9.18
2023-02-17T19:28:01.273Z,9.60
2023-02-17T19:30:46.591Z,9.80
2023-02-17T19:33:31.861Z,9.38
2023-02-17T19:36:19.847Z,8.77
2023-02-17T19:39:05.274Z,9.95
2023-02-17T19:41:50.412Z,9.73
2023-02-17T19:44:35.794Z,9.38
2023-02-17T19:47:20.926Z,10.05
2023-02-17T19:50:06.917Z,9.80
2023-02-17T19:52:53.366Z,9.85
2023-02-17T19:55:38.344Z,10.18
2023-02-17T19:58:23.661Z,9.00
2023-02-17T20:01:12.252Z,9.27
2023-02-17T20:03:59.029Z,9.45
2023-02-17T20:06:47.492Z,9.50
2023-02-17T20:09:42.761Z,9.75
2023-02-17T20:12:28.055Z,10.55
2023-02-17T20:15:13.490Z,10.48
2023-02-17T20:17:58.513Z,10.02
2023-02-17T20:20:52.246Z,10.32
2023-02-17T20:23:37.256Z,10.20
2023-02-17T20:26:26.663Z,10.15
2023-02-17T20:29:13.014Z,10.15
2023-02-17T20:31:58.423Z,10.02
2023-02-17T20:34:43.399Z,10.52
2023-02-17T20:37:28.722Z,10.60
2023-02-17T20:40:14.055Z,10.75
2023-02-17T20:42:59.718Z,11.63
2023-02-17T20:45:45.664Z,10.10
2023-02-17T20:48:30.796Z,11.60
2023-02-17T20:51:16.274Z,10.77
2023-02-17T20:54:01.415Z,9.80
2023-02-17T20:56:47.660Z,10.18
2023-02-17T20:59:32.681Z,10.23
2023-02-17T21:02:17.983Z,9.95
2023-02-17T21:05:03.362Z,11.05
2023-02-17T21:07:48.752Z,10.60
2023-02-17T21:10:34.062Z,10.50
2023-02-17T21:13:19.772Z,10.45
2023-02-17T21:16:05.359Z,11.52
2023-02-17T21:18:50.811Z,10.38
2023-02-17T21:21:36.115Z,11.50
2023-02-17T21:24:21.592Z,10.30
2023-02-17T21:27:06.818Z,10.52
2023-02-17T21:29:52.041Z,10.00
2023-02-17T21:32:37.146Z,10.23
2023-02-17T21:35:22.410Z,9.60
2023-02-17T21:38:16.790Z,8.88
2023-02-17T21:41:11.390Z,8.60
2023-02-17T21:44:15.022Z,8.00
2023-02-17T21:47:00.319Z,7.68
2023-02-17T21:49:45.333Z,7.60
2023-02-17T21:52:31.163Z,7.88
2023-02-17T21:55:16.377Z,7.97
2023-02-17T21:58:01.730Z,7.72
2023-02-17T22:00:49.046Z,8.13
2023-02-17T22:03:34.080Z,8.52
2023-02-17T22:06:25.713Z,7.65
2023-02-17T22:09:14.842Z,8.30
2023-02-17T22:11:59.836Z,8.40
2023-02-17T22:14:45.044Z,7.60
2023-02-17T22:17:30.213Z,7.80
2023-02-17T22:20:15.526Z,6.90
2023-02-17T22:23:00.869Z,7.22
2023-02-17T22:25:46.262Z,7.20
2023-02-17T22:28:31.209Z,6.72
2023-02-17T22:31:19.391Z,7.00
2023-02-17T22:34:07.505Z,7.20
2023-02-17T22:36:52.558Z,7.30
2023-02-17T22:39:37.850Z,6.28
2023-02-17T22:42:24.313Z,6.38
2023-02-17T22:45:10.678Z,5.70
2023-02-17T22:47:55.999Z,5.70
2023-02-17T22:50:41.856Z,6.03
2023-02-17T22:53:27.080Z,5.28
2023-02-17T22:56:12.982Z,5.60
2023-02-17T22:59:00.966Z,5.47
2023-02-17T23:01:46.302Z,5.25
2023-02-17T23:04:31.524Z,4.78
2023-02-17T23:07:16.961Z,5.05
2023-02-17T23:10:02.844Z,4.78
2023-02-17T23:12:47.837Z,4.30
2023-02-17T23:15:42.355Z,4.80
2023-02-17T23:18:30.115Z,4.70
2023-02-17T23:21:15.416Z,4.78
2023-02-17T23:24:00.571Z,4.05
2023-02-17T23:26:47.494Z,3.58
2023-02-17T23:29:32.951Z,3.53
2023-02-17T23:32:17.823Z,3.60
2023-02-17T23:35:03.648Z,3.55
2023-02-17T23:37:50.679Z,3.22
2023-02-17T23:40:37.370Z,3.55
2023-02-17T23:43:22.777Z,3.28
2023-02-17T23:46:08.419Z,2.68
2023-02-17T23:48:53.688Z,3.42
2023-02-17T23:51:38.711Z,3.38
2023-02-17T23:54:25.031Z,3.20
2023-02-17T23:57:10.886Z,3.22
2023-02-17T23:59:55.958Z,2.97
